Time;durP1;ratioP1;P1;durP2;ratioP2;P2;SDS_P1;SDS_P2;PMS_P1;PMS_P2;Temp;Humidity;BMP_temperature;BMP_pressure;BME280_temperature;BME280_humidity;BME280_pressure;Samples;Min_cycle;Max_cycle;Signal;HPM_P1;HPM_P2
2021/09/14 00:02:07;;;;;;;15.50;11.40;;;;;;;13.90;85.88;96938.02;114166;1201;31132;-82
2021/09/14 00:04:37;;;;;;;18.30;11.10;;;;;;;13.94;86.15;96937.39;114158;1208;46146;-82
2021/09/14 00:07:08;;;;;;;15.90;12.00;;;;;;;13.97;86.12;96938.52;114220;1207;48882;-81
2021/09/14 00:09:40;;;;;;;14.70;11.70;;;;;;;14.01;86.32;96936.74;114241;1201;30259;-82
2021/09/14 00:12:12;;;;;;;13.90;10.40;;;;;;;14.05;86.53;96940.62;114253;1202;30367;-82
2021/09/14 00:14:44;;;;;;;14.30;10.70;;;;;;;14.03;86.23;96941.98;114170;1201;28027;-81
2021/09/14 00:17:15;;;;;;;14.30;11.10;;;;;;;13.94;86.27;96941.42;114138;1202;30323;-82
2021/09/14 00:19:46;;;;;;;15.40;11.10;;;;;;;13.91;86.23;96943.23;114173;1208;29226;-82
2021/09/14 00:22:18;;;;;;;14.00;9.90;;;;;;;13.87;86.36;96943.19;114227;1202;32386;-82
2021/09/14 00:24:49;;;;;;;15.50;10.40;;;;;;;13.86;86.28;96944.27;114238;1201;27887;-83
2021/09/14 00:27:21;;;;;;;14.60;10.50;;;;;;;13.93;86.30;96944.70;114101;1208;28610;-82
2021/09/14 00:29:52;;;;;;;13.40;9.30;;;;;;;14.00;86.04;96943.58;114149;1202;32881;-82
2021/09/14 00:32:23;;;;;;;15.00;10.50;;;;;;;13.96;85.33;96952.02;114164;1201;28536;-81
2021/09/14 00:34:54;;;;;;;17.10;12.50;;;;;;;13.76;85.11;96949.61;114112;1202;31728;-82
2021/09/14 00:37:26;;;;;;;16.70;11.30;;;;;;;13.60;85.58;96948.81;114156;1202;29999;-82
2021/09/14 00:39:58;;;;;;;16.70;11.60;;;;;;;13.56;86.38;96947.95;114191;1200;31090;-82
2021/09/14 00:42:29;;;;;;;15.70;10.50;;;;;;;13.60;86.78;96948.35;114082;1201;39729;-82
2021/09/14 00:45:01;;;;;;;15.50;11.90;;;;;;;13.67;87.22;96950.60;114142;1201;25357;-82
2021/09/14 00:47:32;;;;;;;17.10;11.90;;;;;;;13.75;87.45;96948.71;114204;1202;26635;-82
2021/09/14 00:50:09;;;;;;;19.50;13.10;;;;;;;13.85;87.67;96951.66;114194;1208;27084;-82
2021/09/14 00:52:42;;;;;;;17.70;11.50;;;;;;;13.97;87.51;96949.61;114196;1201;35557;-82
2021/09/14 00:55:13;;;;;;;17.10;12.20;;;;;;;13.98;87.39;96947.57;114265;1201;29366;-80
2021/09/14 00:57:45;;;;;;;17.40;12.50;;;;;;;13.98;87.42;96945.86;114197;1205;29097;-81
2021/09/14 01:00:17;;;;;;;16.90;12.40;;;;;;;13.95;87.47;96940.73;114026;1201;28647;-82
2021/09/14 01:02:49;;;;;;;17.80;12.90;;;;;;;13.94;87.67;96939.73;114110;1206;30932;-82
2021/09/14 01:05:21;;;;;;;14.30;11.20;;;;;;;13.97;87.68;96941.18;114097;1201;29344;-82
2021/09/14 01:07:54;;;;;;;14.50;11.60;;;;;;;14.02;87.62;96940.93;114076;1201;29366;-82
2021/09/14 01:10:25;;;;;;;17.00;12.90;;;;;;;14.11;87.68;96943.13;114148;1204;29233;-82
2021/09/14 01:12:56;;;;;;;16.40;13.10;;;;;;;14.19;87.70;96938.45;114167;1202;28416;-82
2021/09/14 01:15:27;;;;;;;16.50;11.50;;;;;;;14.20;87.19;96942.59;114165;1201;31094;-82
2021/09/14 01:17:58;;;;;;;14.30;10.10;;;;;;;14.21;86.93;96938.52;114182;1206;28664;-82
2021/09/14 01:20:29;;;;;;;17.80;12.20;;;;;;;14.22;86.89;96936.23;114171;1202;29872;-82
2021/09/14 01:23:00;;;;;;;17.90;12.80;;;;;;;14.15;86.95;96937.14;114042;1198;51319;-83
2021/09/14 01:25:31;;;;;;;17.70;13.10;;;;;;;14.07;87.18;96937.02;114128;1204;27599;-83
2021/09/14 01:28:06;;;;;;;17.70;12.50;;;;;;;14.02;87.55;96934.27;114133;1202;29586;-82
2021/09/14 01:30:39;;;;;;;18.20;13.10;;;;;;;13.96;87.72;96934.96;114249;1201;34447;-82
2021/09/14 01:33:10;;;;;;;16.60;12.80;;;;;;;13.93;87.78;96933.41;114233;1201;26850;-82
2021/09/14 01:35:41;;;;;;;18.10;11.30;;;;;;;13.90;87.87;96931.09;114249;1202;32119;-82
2021/09/14 01:38:13;;;;;;;15.40;11.50;;;;;;;13.90;87.77;96932.44;114284;1205;27748;-82
2021/09/14 01:40:47;;;;;;;15.30;11.60;;;;;;;13.84;87.87;96931.84;114189;1206;28311;-82
2021/09/14 01:43:23;;;;;;;16.80;11.00;;;;;;;13.78;87.77;96931.45;114093;1206;29767;-82
2021/09/14 01:45:53;;;;;;;18.90;11.90;;;;;;;13.78;87.99;96930.75;114195;1206;28737;-82
2021/09/14 01:48:25;;;;;;;16.60;11.80;;;;;;;13.74;88.09;96931.67;114130;1201;28104;-82
2021/09/14 01:50:56;;;;;;;16.40;12.40;;;;;;;13.66;88.52;96938.57;114242;1205;33257;-82
2021/09/14 01:53:28;;;;;;;17.40;12.20;;;;;;;13.62;88.93;96937.29;114213;1202;33587;-82
2021/09/14 01:56:02;;;;;;;17.00;12.50;;;;;;;13.64;89.25;96941.89;114201;1205;28353;-82
2021/09/14 01:58:33;;;;;;;16.90;12.80;;;;;;;13.66;89.22;96937.77;114130;1201;32885;-82
2021/09/14 02:01:09;;;;;;;13.20;10.30;;;;;;;13.65;89.00;96936.98;114081;1203;29523;-82
2021/09/14 02:03:48;;;;;;;15.80;10.80;;;;;;;13.61;89.00;96936.39;114200;1197;35118;-82
2021/09/14 02:06:34;;;;;;;13.30;9.50;;;;;;;13.63;88.75;96936.73;114151;1201;30729;-81
2021/09/14 02:43:18;;;;;;;16.00;11.80;;;;;;;13.77;87.67;96929.77;114092;1209;32969;-81
2021/09/14 02:59:56;;;;;;;10.70;8.60;;;;;;;13.46;86.39;96929.06;114236;1203;43998;-81
2021/09/14 03:02:27;;;;;;;9.80;8.30;;;;;;;13.42;86.61;96929.07;114161;1201;27126;-82
2021/09/14 03:04:58;;;;;;;15.60;10.80;;;;;;;13.47;86.84;96923.81;114277;1201;38668;-81
2021/09/14 03:07:29;;;;;;;12.70;9.60;;;;;;;13.50;86.97;96923.77;114280;1200;27118;-82
2021/09/14 03:10:00;;;;;;;14.80;9.90;;;;;;;13.54;86.96;96921.38;114173;1201;31700;-81
2021/09/14 03:12:31;;;;;;;13.60;10.80;;;;;;;13.57;86.72;96920.38;114117;1206;28723;-82
2021/09/14 03:15:02;;;;;;;14.50;11.00;;;;;;;13.58;86.84;96921.25;114150;1209;27876;-82
2021/09/14 03:17:32;;;;;;;13.70;10.60;;;;;;;13.56;86.72;96923.00;114045;1202;30590;-81
2021/09/14 03:20:04;;;;;;;14.50;11.80;;;;;;;13.55;86.76;96922.55;114047;1202;27844;-81
2021/09/14 03:22:35;;;;;;;16.00;11.20;;;;;;;13.57;87.04;96923.35;114127;1201;36494;-81
2021/09/14 03:25:08;;;;;;;17.70;12.80;;;;;;;13.58;86.96;96922.27;114177;1205;30555;-81
2021/09/14 03:27:39;;;;;;;19.40;13.40;;;;;;;13.59;87.30;96920.02;114296;1202;29857;-82
2021/09/14 03:30:11;;;;;;;18.40;13.70;;;;;;;13.60;87.48;96918.52;114326;1201;28764;-82
2021/09/14 03:32:42;;;;;;;15.80;12.70;;;;;;;13.61;87.41;96918.27;114164;1206;30018;-82
2021/09/14 03:35:13;;;;;;;18.60;14.20;;;;;;;13.59;87.49;96920.23;114230;1206;34474;-80
2021/09/14 03:37:44;;;;;;;19.30;15.20;;;;;;;13.62;87.74;96921.35;114138;1202;28492;-81
2021/09/14 03:40:16;;;;;;;17.10;13.90;;;;;;;13.63;87.75;96922.13;114028;1201;30201;-80
2021/09/14 03:42:46;;;;;;;15.70;12.20;;;;;;;13.65;87.70;96922.75;114156;1203;34954;-81
2021/09/14 03:45:18;;;;;;;17.00;12.90;;;;;;;13.63;87.52;96923.14;114232;1205;31556;-82
2021/09/14 03:47:49;;;;;;;16.60;13.60;;;;;;;13.63;87.57;96921.65;114155;1202;29616;-81
2021/09/14 03:50:20;;;;;;;18.60;14.10;;;;;;;13.63;87.37;96924.38;114264;1198;32040;-81
2021/09/14 03:52:51;;;;;;;19.00;14.60;;;;;;;13.61;87.54;96922.70;114094;1201;28154;-82
2021/09/14 03:55:22;;;;;;;17.60;14.30;;;;;;;13.61;87.55;96926.42;114116;1202;29523;-81
2021/09/14 03:57:52;;;;;;;17.50;14.30;;;;;;;13.58;87.35;96925.31;114108;1203;31680;-82
2021/09/14 04:00:24;;;;;;;18.20;13.60;;;;;;;13.54;87.40;96930.44;114200;1201;62585;-82
2021/09/14 04:02:58;;;;;;;16.10;13.40;;;;;;;13.52;87.44;96934.13;114240;1201;29307;-81
2021/09/14 04:11:02;;;;;;;14.90;11.70;;;;;;;13.50;87.02;96933.14;114165;1201;27626;-81
2021/09/14 04:13:33;;;;;;;13.80;11.40;;;;;;;13.54;86.85;96936.04;114246;1206;31321;-82
2021/09/14 04:16:04;;;;;;;13.20;10.40;;;;;;;13.51;86.53;96934.52;114202;1202;32949;-81
2021/09/14 04:18:35;;;;;;;15.40;11.50;;;;;;;13.46;86.51;96931.55;114235;1195;29058;-81
2021/09/14 04:21:06;;;;;;;13.20;11.20;;;;;;;13.37;86.45;96931.95;114160;1202;29668;-82
2021/09/14 04:23:37;;;;;;;13.80;10.60;;;;;;;13.30;86.50;96931.94;114270;1206;27206;-81
2021/09/14 04:26:09;;;;;;;13.40;10.50;;;;;;;13.20;86.57;96932.07;114294;1203;46514;-83
2021/09/14 04:28:40;;;;;;;11.50;9.60;;;;;;;13.18;86.83;96932.61;113993;1203;30447;-82
2021/09/14 04:31:11;;;;;;;13.20;10.70;;;;;;;13.19;86.80;96932.19;114081;1205;28535;-81
2021/09/14 04:33:43;;;;;;;14.10;11.00;;;;;;;13.33;87.06;96933.83;114111;1201;30264;-83
2021/09/14 04:36:14;;;;;;;13.30;10.70;;;;;;;13.43;86.69;96937.30;114104;1206;32710;-81
2021/09/14 04:38:45;;;;;;;14.70;10.90;;;;;;;13.49;86.56;96936.73;114128;1201;33152;-81
2021/09/14 04:41:16;;;;;;;15.20;10.10;;;;;;;13.64;86.71;96933.54;114063;1201;36266;-82
2021/09/14 04:43:47;;;;;;;12.50;10.00;;;;;;;13.95;86.60;96936.78;114111;1201;27938;-82
2021/09/14 04:46:18;;;;;;;12.60;9.30;;;;;;;14.28;86.09;96936.29;114315;1208;24088;-83
2021/09/14 04:48:49;;;;;;;12.80;10.10;;;;;;;14.49;84.97;96937.91;114244;1202;26735;-82
2021/09/14 04:51:20;;;;;;;11.80;9.60;;;;;;;14.72;84.80;96937.50;114222;1205;42599;-82
2021/09/14 04:53:51;;;;;;;13.30;9.50;;;;;;;15.09;84.92;96935.20;114169;1205;33439;-82
2021/09/14 04:56:22;;;;;;;14.00;10.90;;;;;;;15.61;84.62;96935.46;114258;1208;38821;-82
2021/09/14 04:58:53;;;;;;;12.30;9.70;;;;;;;16.11;83.83;96936.50;114234;1202;42935;-82
2021/09/14 05:01:24;;;;;;;14.70;10.00;;;;;;;16.62;83.11;96937.00;114236;1202;31563;-82
2021/09/14 05:03:55;;;;;;;11.90;10.10;;;;;;;17.11;81.90;96937.02;114254;1208;29219;-82
2021/09/14 05:06:26;;;;;;;13.90;9.50;;;;;;;17.41;80.56;96934.36;114173;1204;30149;-81
2021/09/14 05:08:57;;;;;;;14.90;9.50;;;;;;;17.29;79.52;96936.96;113998;1203;32000;-82
2021/09/14 05:11:28;;;;;;;12.80;10.40;;;;;;;17.07;78.94;96935.02;114099;1201;32430;-83
2021/09/14 05:14:00;;;;;;;11.30;9.40;;;;;;;16.83;78.92;96939.94;114208;1203;31297;-82
2021/09/14 05:16:31;;;;;;;12.00;10.10;;;;;;;16.95;79.58;96939.76;114158;1208;29187;-81
2021/09/14 05:19:02;;;;;;;12.40;9.40;;;;;;;17.65;79.88;96937.83;114149;1201;32007;-82
2021/09/14 05:21:33;;;;;;;11.90;9.80;;;;;;;18.29;78.53;96941.75;114082;1202;34438;-82
2021/09/14 05:24:05;;;;;;;12.40;9.50;;;;;;;18.88;77.57;96944.23;114228;1205;28089;-82
2021/09/14 05:26:36;;;;;;;11.20;9.10;;;;;;;19.46;76.51;96937.55;114242;1201;29566;-81
2021/09/14 05:29:07;;;;;;;11.80;8.80;;;;;;;20.06;75.13;96942.75;114106;1201;29214;-81
2021/09/14 05:31:38;;;;;;;9.00;7.90;;;;;;;20.57;73.75;96942.96;114135;1202;48303;-81
2021/09/14 05:34:09;;;;;;;9.80;8.20;;;;;;;21.05;72.23;96942.06;114083;1202;30748;-82
2021/09/14 05:36:41;;;;;;;9.50;7.80;;;;;;;21.43;70.82;96941.23;114230;1203;76180;-81
2021/09/14 05:39:13;;;;;;;8.70;7.40;;;;;;;21.73;69.33;96942.66;114346;1201;27047;-82
2021/09/14 05:41:44;;;;;;;10.20;7.30;;;;;;;22.01;68.49;96947.23;114264;1201;29089;-81
2021/09/14 05:44:16;;;;;;;8.90;7.60;;;;;;;22.49;67.19;96949.78;114106;1204;39864;-82
2021/09/14 05:46:48;;;;;;;7.40;6.10;;;;;;;22.75;65.20;96945.95;114271;1201;42825;-81
2021/09/14 05:49:19;;;;;;;7.40;6.30;;;;;;;22.88;63.94;96947.13;114256;1201;28036;-82
2021/09/14 05:51:51;;;;;;;8.70;6.40;;;;;;;22.99;63.03;96949.02;114161;1203;30083;-82
2021/09/14 05:54:22;;;;;;;6.80;6.00;;;;;;;23.24;62.56;96950.30;114187;1202;39933;-82
2021/09/14 05:56:53;;;;;;;6.20;5.60;;;;;;;23.67;61.55;96950.98;114170;1204;29289;-83
2021/09/14 05:59:24;;;;;;;7.20;5.90;;;;;;;24.01;60.34;96948.80;114186;1203;31943;-82
2021/09/14 06:01:55;;;;;;;7.00;6.00;;;;;;;24.43;59.77;96955.42;114200;1201;33736;-82
2021/09/14 06:04:26;;;;;;;6.00;5.30;;;;;;;24.90;59.38;96953.30;114230;1200;31751;-83
2021/09/14 06:06:57;;;;;;;7.30;5.30;;;;;;;25.53;58.14;96953.20;114213;1206;31959;-83
2021/09/14 06:09:28;;;;;;;6.60;5.40;;;;;;;26.04;56.56;96957.60;114153;1201;28932;-83
2021/09/14 06:12:00;;;;;;;6.70;5.80;;;;;;;26.50;55.07;96958.27;114189;1203;37255;-83
2021/09/14 06:14:31;;;;;;;7.30;6.00;;;;;;;26.81;54.08;96963.70;114299;1201;25835;-83
2021/09/14 06:17:03;;;;;;;6.60;5.40;;;;;;;27.01;52.94;96963.88;114213;1201;27983;-82
2021/09/14 06:19:34;;;;;;;6.40;5.70;;;;;;;27.42;53.02;96962.48;114168;1201;38780;-83
2021/09/14 06:22:05;;;;;;;6.20;5.60;;;;;;;27.92;51.90;96960.28;114114;1208;27960;-83
2021/09/14 06:24:37;;;;;;;6.30;5.60;;;;;;;28.32;50.91;96963.25;114213;1201;46096;-83
2021/09/14 06:27:08;;;;;;;7.40;6.00;;;;;;;28.54;49.99;96961.59;114241;1201;28850;-83
2021/09/14 06:29:39;;;;;;;6.60;5.70;;;;;;;28.62;48.77;96964.96;114194;1203;29476;-83
2021/09/14 06:32:14;;;;;;;6.70;5.80;;;;;;;28.76;48.32;96963.03;114124;1201;28144;-83
2021/09/14 06:34:46;;;;;;;6.90;5.50;;;;;;;28.72;47.89;96965.67;114157;1206;33349;-82
2021/09/14 06:37:17;;;;;;;5.90;5.30;;;;;;;29.13;47.61;96965.34;114185;1202;42860;-83
2021/09/14 06:39:48;;;;;;;7.10;6.20;;;;;;;29.75;46.48;96966.11;114056;1201;31152;-83
2021/09/14 06:42:20;;;;;;;5.90;5.30;;;;;;;29.98;46.54;96964.79;114156;1203;28369;-83
2021/09/14 06:44:52;;;;;;;6.20;5.00;;;;;;;30.44;45.27;96962.08;114098;1201;35287;-83
2021/09/14 06:47:23;;;;;;;7.10;5.20;;;;;;;30.57;44.62;96966.70;114013;1202;33831;-83
2021/09/14 06:49:55;;;;;;;5.40;4.60;;;;;;;30.88;44.52;96965.02;114260;1201;29320;-83
2021/09/14 06:52:26;;;;;;;4.90;4.40;;;;;;;31.23;43.64;96967.49;114279;1201;28895;-83
2021/09/14 06:54:57;;;;;;;5.60;5.00;;;;;;;31.50;42.88;96967.95;114047;1205;35193;-83
2021/09/14 06:57:28;;;;;;;5.50;5.00;;;;;;;31.88;42.87;96966.39;114116;1201;30236;-83
2021/09/14 06:59:59;;;;;;;4.80;4.30;;;;;;;32.07;42.19;96965.70;114140;1206;28362;-83
2021/09/14 07:02:30;;;;;;;5.30;4.80;;;;;;;32.34;41.29;96966.23;114242;1202;28921;-83
2021/09/14 07:05:01;;;;;;;6.00;4.80;;;;;;;32.58;41.29;96965.13;114204;1201;28937;-83
2021/09/14 07:07:32;;;;;;;6.10;5.00;;;;;;;33.13;40.29;96961.63;114194;1201;28676;-83
2021/09/14 07:10:05;;;;;;;5.00;4.40;;;;;;;33.14;40.12;96961.45;114082;1208;30049;-83
2021/09/14 07:12:36;;;;;;;6.80;5.20;;;;;;;33.60;39.66;96959.87;114050;1202;31187;-84
2021/09/14 07:15:08;;;;;;;7.50;5.60;;;;;;;34.17;39.03;96958.84;114161;1204;28480;-84
2021/09/14 07:17:39;;;;;;;7.50;5.30;;;;;;;34.63;37.87;96956.87;114238;1206;29237;-83
2021/09/14 07:20:12;;;;;;;6.40;5.80;;;;;;;34.74;37.59;96962.09;114161;1202;33423;-83
2021/09/14 07:22:43;;;;;;;8.40;5.40;;;;;;;34.68;36.97;96960.34;114249;1201;31262;-83
2021/09/14 07:25:15;;;;;;;6.20;5.60;;;;;;;34.43;36.79;96960.45;114187;1197;27136;-83
2021/09/14 07:27:46;;;;;;;6.30;5.40;;;;;;;34.72;36.77;96965.07;114028;1201;38172;-83
2021/09/14 07:30:17;;;;;;;6.70;5.40;;;;;;;35.13;36.76;96966.00;114187;1201;27240;-83
2021/09/14 07:32:54;;;;;;;6.80;5.60;;;;;;;35.73;36.36;96964.85;114199;1201;26815;-84
2021/09/14 07:35:26;;;;;;;7.40;5.80;;;;;;;35.42;34.98;96965.13;114134;1204;28229;-84
2021/09/14 07:37:57;;;;;;;8.20;6.20;;;;;;;34.90;35.08;96964.80;114044;1201;39799;-84
2021/09/14 07:40:29;;;;;;;7.00;5.90;;;;;;;34.67;35.18;96963.21;114114;1201;29283;-83
2021/09/14 07:43:01;;;;;;;7.80;6.00;;;;;;;34.34;35.47;96965.73;114061;1201;33422;-84
2021/09/14 07:45:42;;;;;;;8.20;6.90;;;;;;;34.15;34.97;96967.16;114061;1204;32190;-83
2021/09/14 07:48:13;;;;;;;7.60;6.50;;;;;;;33.70;34.83;96969.91;114156;1201;30422;-84
2021/09/14 07:50:44;;;;;;;9.90;7.40;;;;;;;33.39;35.42;96967.34;114023;1204;28442;-82
2021/09/14 07:53:15;;;;;;;7.40;5.60;;;;;;;33.21;34.81;96969.27;114154;1208;28710;-82
2021/09/14 07:55:46;;;;;;;7.50;6.40;;;;;;;32.88;35.71;96972.63;114075;1201;28275;-82
2021/09/14 07:58:17;;;;;;;9.30;6.20;;;;;;;33.23;36.13;96967.05;114167;1197;29470;-84
2021/09/14 08:00:48;;;;;;;9.30;6.30;;;;;;;33.13;35.14;96969.92;114095;1205;30664;-84
2021/09/14 08:03:19;;;;;;;8.40;6.50;;;;;;;31.66;34.62;96976.23;114000;1208;29652;-83
2021/09/14 08:05:50;;;;;;;8.70;6.40;;;;;;;30.23;36.14;96975.00;114082;1203;29518;-82
2021/09/14 08:08:21;;;;;;;8.90;5.80;;;;;;;29.29;37.14;96972.65;114061;1201;33493;-83
2021/09/14 08:10:52;;;;;;;7.10;5.60;;;;;;;28.72;37.45;96973.86;114184;1201;37847;-83
2021/09/14 08:13:24;;;;;;;7.80;5.40;;;;;;;28.51;38.52;96973.83;114028;1201;29953;-84
2021/09/14 08:47:38;;;;;;;8.80;6.70;;;;;;;25.71;43.61;96966.26;114062;1200;27860;-82
2021/09/14 08:50:13;;;;;;;8.80;5.90;;;;;;;25.47;44.00;96967.61;113825;1204;30796;-83
2021/09/14 08:52:44;;;;;;;8.70;6.30;;;;;;;25.48;44.34;96969.33;113917;1204;29955;-84
2021/09/14 08:55:15;;;;;;;8.30;6.20;;;;;;;25.32;44.41;96967.55;113874;1204;43523;-84
2021/09/14 08:57:52;;;;;;;9.20;6.70;;;;;;;25.47;44.64;96969.56;113870;1207;37781;-84
2021/09/14 09:00:32;;;;;;;8.10;6.30;;;;;;;25.32;44.54;96969.95;113931;1205;30317;-83
2021/09/14 09:03:03;;;;;;;9.00;6.20;;;;;;;24.86;45.08;96972.91;113864;1205;27635;-83
2021/09/14 09:05:36;;;;;;;7.40;5.80;;;;;;;24.70;46.15;96972.27;113879;1204;32283;-83
2021/09/14 09:08:20;;;;;;;10.90;6.60;;;;;;;24.86;46.09;96974.31;113850;1204;30548;-85
2021/09/14 09:11:03;;;;;;;10.70;5.40;;;;;;;24.51;45.79;96973.92;113880;1204;27700;-83
2021/09/14 09:13:47;;;;;;;8.10;6.20;;;;;;;24.72;46.97;96976.09;113855;1204;29061;-84
2021/09/14 09:16:23;;;;;;;8.40;6.40;;;;;;;24.58;45.21;96974.05;113840;1204;30126;-84
2021/09/14 09:18:56;;;;;;;9.50;6.00;;;;;;;23.96;45.71;96967.73;113920;1204;27364;-83
2021/09/14 09:21:32;;;;;;;8.20;5.60;;;;;;;23.82;46.60;96967.75;113976;1204;25469;-84
2021/09/14 09:24:07;;;;;;;11.50;7.50;;;;;;;23.66;46.91;96968.73;113868;1206;29489;-83
2021/09/14 09:26:40;;;;;;;8.70;6.60;;;;;;;23.60;48.25;96971.63;113826;1204;28072;-83
2021/09/14 09:29:20;;;;;;;9.90;6.70;;;;;;;23.56;47.17;96972.45;113805;1204;29627;-83
2021/09/14 09:31:53;;;;;;;9.30;6.20;;;;;;;23.05;47.70;96975.61;113906;1204;28870;-83
2021/09/14 09:34:29;;;;;;;9.70;7.30;;;;;;;22.85;48.54;96971.30;113929;1204;29268;-84
2021/09/14 09:37:06;;;;;;;11.80;7.00;;;;;;;22.86;49.21;96973.59;113772;1210;41340;-83
2021/09/14 09:39:47;;;;;;;10.50;6.50;;;;;;;22.89;49.68;96973.74;113877;1204;29343;-83
2021/09/14 09:42:20;;;;;;;10.20;7.40;;;;;;;23.00;49.68;96977.25;113864;1204;29137;-84
2021/09/14 09:44:59;;;;;;;10.20;6.50;;;;;;;22.68;49.55;96980.37;113814;1206;64841;-83
2021/09/14 09:47:31;;;;;;;9.80;6.70;;;;;;;22.69;50.55;96980.02;113855;1204;40570;-83
2021/09/14 09:50:02;;;;;;;10.10;7.10;;;;;;;22.69;50.44;96979.15;113841;1205;28981;-83
2021/09/14 09:52:33;;;;;;;8.50;6.80;;;;;;;22.72;51.41;96980.19;113833;1204;31353;-82
2021/09/14 09:55:06;;;;;;;8.70;6.60;;;;;;;22.78;50.54;96980.09;113845;1204;29715;-83
2021/09/14 09:57:39;;;;;;;8.90;6.70;;;;;;;22.73;51.49;96976.64;113821;1204;32936;-83
2021/09/14 10:00:13;;;;;;;9.40;6.60;;;;;;;22.75;51.48;96974.77;113837;1205;36874;-83
2021/09/14 10:02:52;;;;;;;7.90;6.30;;;;;;;22.78;52.03;96977.02;113898;1204;32052;-84
2021/09/14 10:05:30;;;;;;;9.00;6.60;;;;;;;22.93;51.99;96978.31;113879;1204;29213;-83
2021/09/14 10:08:10;;;;;;;8.70;6.70;;;;;;;23.06;51.97;96976.16;113847;1204;27247;-82
2021/09/14 10:10:42;;;;;;;11.10;7.20;;;;;;;23.11;51.83;96977.08;113871;1204;29753;-83
2021/09/14 10:13:13;;;;;;;9.40;6.70;;;;;;;22.99;51.45;96977.15;113809;1211;27132;-83
2021/09/14 10:15:46;;;;;;;9.00;6.80;;;;;;;22.96;51.56;96976.95;113847;1204;29179;-83
2021/09/14 10:18:28;;;;;;;8.90;6.80;;;;;;;22.87;51.48;96977.25;113831;1204;28901;-84
2021/09/14 10:21:00;;;;;;;9.00;7.10;;;;;;;22.81;51.70;96980.40;113881;1210;27919;-82
2021/09/14 10:23:38;;;;;;;8.70;6.70;;;;;;;22.81;51.92;96979.17;113854;1200;36121;-83
2021/09/14 10:26:12;;;;;;;11.40;7.10;;;;;;;22.87;52.27;96978.25;113817;1198;28938;-83
2021/09/14 10:28:48;;;;;;;10.80;7.80;;;;;;;22.95;52.37;96978.29;113859;1205;26935;-83
2021/09/14 10:31:27;;;;;;;10.80;7.40;;;;;;;23.08;52.73;96978.15;113806;1212;27160;-83
2021/09/14 10:34:06;;;;;;;10.10;6.70;;;;;;;23.22;52.32;96976.92;113823;1204;34048;-82
2021/09/14 10:36:40;;;;;;;10.30;7.90;;;;;;;23.23;51.94;96977.25;113869;1204;32367;-83
2021/09/14 10:39:27;;;;;;;12.50;8.10;;;;;;;23.24;52.63;96979.98;113843;1212;28279;-83
2021/09/14 10:41:58;;;;;;;9.90;7.90;;;;;;;23.16;51.91;96979.80;113841;1212;30846;-82
2021/09/14 10:44:32;;;;;;;12.00;7.90;;;;;;;22.72;51.34;96982.48;113905;1204;29775;-83
2021/09/14 10:47:12;;;;;;;11.10;7.50;;;;;;;22.13;51.78;96978.30;113809;1212;27850;-82
2021/09/14 10:49:57;;;;;;;12.20;7.20;;;;;;;21.86;53.16;96979.30;113800;1207;28665;-83
2021/09/14 10:52:35;;;;;;;9.70;7.60;;;;;;;21.95;52.91;96976.14;113816;1207;27453;-83
2021/09/14 10:55:12;;;;;;;8.50;6.60;;;;;;;22.02;53.17;96979.13;113807;1210;34295;-82
2021/09/14 10:57:45;;;;;;;8.40;6.70;;;;;;;22.27;54.11;96982.70;113746;1205;25912;-83
2021/09/14 11:00:19;;;;;;;10.00;7.10;;;;;;;22.64;54.13;96982.98;113746;1207;32677;-83
2021/09/14 11:02:59;;;;;;;9.90;6.50;;;;;;;22.98;53.79;96978.84;113797;1204;41227;-83
2021/09/14 11:05:32;;;;;;;9.70;6.30;;;;;;;23.22;53.82;96984.52;113812;1204;31197;-83
2021/09/14 11:08:07;;;;;;;11.00;6.80;;;;;;;23.45;53.65;96983.80;113715;1205;61377;-83
2021/09/14 11:10:40;;;;;;;9.20;6.70;;;;;;;23.68;53.06;96984.33;113755;1207;27637;-83
2021/09/14 11:13:19;;;;;;;10.50;7.50;;;;;;;23.84;52.42;96979.34;113875;1207;28739;-85
2021/09/14 11:15:58;;;;;;;10.90;7.10;;;;;;;23.97;52.16;96976.88;113834;1205;26196;-84
2021/09/14 11:18:31;;;;;;;8.60;6.60;;;;;;;23.99;51.92;96974.54;113806;1206;28927;-82
2021/09/14 11:21:08;;;;;;;9.70;6.70;;;;;;;23.83;51.53;96977.14;113818;1204;25503;-83
2021/09/14 11:23:41;;;;;;;9.10;6.50;;;;;;;23.70;51.47;96976.19;113840;1212;25646;-84
2021/09/14 11:26:16;;;;;;;9.50;7.00;;;;;;;23.76;51.88;96976.08;113810;1208;27449;-84
2021/09/14 11:28:59;;;;;;;9.20;7.70;;;;;;;23.74;50.89;96973.46;113701;1207;27944;-84
2021/09/14 11:31:33;;;;;;;9.70;7.30;;;;;;;23.54;51.13;96968.54;113825;1210;38604;-83
2021/09/14 11:34:05;;;;;;;8.20;6.60;;;;;;;23.57;51.59;96968.61;113789;1201;27180;-84
2021/09/14 11:36:37;;;;;;;8.00;6.80;;;;;;;23.61;51.12;96964.99;113824;1209;29513;-84
2021/09/14 11:39:08;;;;;;;11.40;7.30;;;;;;;23.37;50.51;96967.29;113803;1207;40079;-83
2021/09/14 11:41:40;;;;;;;8.50;6.10;;;;;;;23.14;51.14;96965.16;113865;1204;31370;-84
2021/09/14 11:44:12;;;;;;;8.40;6.60;;;;;;;23.16;51.40;96965.66;113810;1208;29453;-83
2021/09/14 11:46:50;;;;;;;8.60;6.50;;;;;;;23.28;51.37;96965.11;113866;1207;30466;-85
2021/09/14 11:49:28;;;;;;;9.50;6.70;;;;;;;23.24;50.63;96962.45;113884;1207;27035;-83
2021/09/14 11:52:05;;;;;;;9.60;6.90;;;;;;;22.94;49.55;96965.88;113899;1204;27873;-83
2021/09/14 11:54:38;;;;;;;8.20;6.00;;;;;;;22.72;50.59;96964.71;113893;1209;30766;-84
2021/09/14 11:57:18;;;;;;;8.10;6.20;;;;;;;22.79;50.71;96959.34;113862;1205;28272;-83
2021/09/14 11:59:49;;;;;;;8.20;5.90;;;;;;;22.99;51.63;96959.00;113862;1205;28062;-84
2021/09/14 12:02:21;;;;;;;8.70;6.00;;;;;;;23.25;51.37;96964.71;113928;1205;25125;-83
2021/09/14 12:05:01;;;;;;;7.60;5.90;;;;;;;23.45;50.39;96964.61;113880;1204;30723;-83
2021/09/14 12:07:32;;;;;;;8.80;6.40;;;;;;;23.59;50.48;96955.82;113902;1204;25724;-83
2021/09/14 12:10:08;;;;;;;8.30;6.50;;;;;;;23.74;50.28;96957.30;113844;1209;27754;-83
2021/09/14 12:12:41;;;;;;;7.50;5.70;;;;;;;23.83;49.76;96952.86;113862;1206;28549;-84
2021/09/14 12:15:14;;;;;;;7.50;5.80;;;;;;;23.80;49.17;96949.86;113882;1209;28913;-85
2021/09/14 12:17:45;;;;;;;9.80;6.60;;;;;;;23.62;49.01;96954.83;113912;1204;31571;-83
2021/09/14 12:20:16;;;;;;;8.40;6.20;;;;;;;23.54;48.84;96951.05;113879;1205;29683;-83
2021/09/14 12:22:47;;;;;;;7.90;5.80;;;;;;;23.42;48.31;96953.04;113909;1209;29484;-85
2021/09/14 12:25:18;;;;;;;7.80;6.00;;;;;;;23.27;48.62;96949.46;113810;1212;67646;-85
2021/09/14 12:27:49;;;;;;;7.50;5.20;;;;;;;23.32;49.48;96951.73;113877;1204;30127;-83
2021/09/14 12:30:20;;;;;;;7.30;5.70;;;;;;;23.46;49.37;96946.00;113885;1208;29184;-83
2021/09/14 12:32:51;;;;;;;7.60;5.70;;;;;;;23.56;49.49;96946.16;113825;1205;31486;-83
2021/09/14 12:35:22;;;;;;;7.80;5.70;;;;;;;23.66;49.16;96943.70;113848;1209;65300;-83
2021/09/14 12:37:53;;;;;;;9.20;5.90;;;;;;;23.62;49.20;96939.73;113919;1207;29292;-83
2021/09/14 12:40:24;;;;;;;9.00;6.30;;;;;;;23.71;49.33;96942.86;113947;1209;27818;-83
2021/09/14 12:42:55;;;;;;;8.20;5.90;;;;;;;23.78;48.62;96938.58;113839;1207;28159;-83
2021/09/14 12:45:26;;;;;;;7.70;5.70;;;;;;;23.78;48.33;96937.05;113961;1212;28743;-84
2021/09/14 12:47:58;;;;;;;8.40;6.40;;;;;;;23.59;48.10;96936.95;113966;1209;36029;-83
2021/09/14 12:50:29;;;;;;;8.10;6.20;;;;;;;23.40;47.66;96934.59;113880;1209;27142;-82
2021/09/14 12:53:03;;;;;;;7.80;6.10;;;;;;;23.31;48.07;96933.00;113891;1205;26670;-83
2021/09/14 12:55:39;;;;;;;9.40;6.80;;;;;;;23.38;48.99;96926.74;113887;1205;28084;-83
2021/09/14 12:58:13;;;;;;;7.80;6.40;;;;;;;23.51;49.78;96922.30;113869;1212;28873;-84
2021/09/14 13:00:44;;;;;;;8.30;6.00;;;;;;;23.63;49.57;96921.27;113853;1205;30544;-83
2021/09/14 13:03:15;;;;;;;8.90;6.90;;;;;;;23.74;49.82;96921.19;113851;1205;27446;-83
2021/09/14 13:05:46;;;;;;;8.00;6.10;;;;;;;23.82;50.06;96918.19;113891;1205;27174;-83
2021/09/14 13:08:18;;;;;;;8.50;6.50;;;;;;;23.89;49.83;96915.98;113902;1209;39645;-83
2021/09/14 13:10:52;;;;;;;9.00;6.30;;;;;;;23.95;49.81;96913.26;113901;1208;28216;-84